Stations météo

réclame
Mon MeteoGroup
Paganella, Italie (16022): Température de l'air & dewpoint: 17.01.2019 08:00:00 - 23.01.2019 08:00:00 (CET)Paganella, Italie (16022): Vitesse du vent: 17.01.2019 08:00:00 - 23.01.2019 08:00:00 (CET)Paganella, Italie (16022): Direction du vent: 17.01.2019 08:00:00 - 23.01.2019 08:00:00 (CET)Paganella, Italie (16022): visibility: 17.01.2019 08:00:00 - 23.01.2019 08:00:00 (CET)Paganella, Italie (16022): Ensoleillement: 17.01.2019 08:00:00 - 23.01.2019 08:00:00 (CET)
Date & Time tt [°C] td [°C] ff [km/h] ff [knt] dd vv [km] sd [min]
23.01.2019 08:00:00 -9,4 -14,4 8 4 S 40 -
23.01.2019 07:00:00 -9,6 -15,1 18 10 S 40 -
23.01.2019 06:00:00 -9,6 -15,9 15 8 E 40 -
23.01.2019 05:00:00 -9,0 -17,5 11 6 NE 40 -
23.01.2019 04:00:00 -9,0 -20,1 15 8 NE 40 -
23.01.2019 03:00:00 -9,4 -17,9 9 5 NNE 45 -
23.01.2019 02:00:00 -9,4 -17,9 11 6 NNE 45 -
23.01.2019 01:00:00 -9,0 -18,0 15 8 N 45 -
23.01.2019 00:00:00 -8,8 -18,6 15 8 N 45 -
22.01.2019 23:00:00 -8,0 -18,7 15 8 N 40 -
22.01.2019 22:00:00 -7,8 -19,6 15 8 N 50 -
22.01.2019 21:00:00 -7,6 -19,5 15 8 N 50 -
22.01.2019 20:00:00 -7,6 -19,8 9 5 N 50 -
22.01.2019 19:00:00 -7,2 -20,1 15 8 N 60 -
22.01.2019 18:00:00 -7,2 -20,4 11 6 N 70 0
22.01.2019 17:00:00 -7,0 -20,6 9 5 N 50 60
22.01.2019 16:00:00 -7,0 -21,7 15 8 N 80 60
22.01.2019 15:00:00 -7,0 -21,3 15 8 N 80 60
22.01.2019 14:00:00 -7,0 -21,3 8 4 N 80 60
22.01.2019 13:00:00 -7,2 -19,4 8 4 N 80 60
22.01.2019 12:00:00 -7,0 -19,6 9 5 N 80 60
22.01.2019 11:00:00 -7,0 -18,9 16 9 N 80 60
22.01.2019 10:00:00 -7,0 -18,9 15 8 N 80 60
22.01.2019 09:00:00 -7,4 -19,3 22 12 N 80 60
22.01.2019 08:00:00 -7,8 -19,1 18 10 N 80 0
22.01.2019 07:00:00 -7,8 -18,5 22 12 N 80 -
22.01.2019 06:00:00 -8,0 -17,8 26 14 N 70 -
22.01.2019 05:00:00 -8,8 -16,4 22 12 N 70 -
22.01.2019 04:00:00 -8,0 -16,6 22 12 N 70 -
22.01.2019 03:00:00 -9,0 -15,1 21 11 N 70 -
22.01.2019 02:00:00 -8,8 -15,1 24 13 N 70 -
22.01.2019 01:00:00 -9,0 -14,4 22 12 N 70 -
22.01.2019 00:00:00 -9,8 -16,1 22 12 N 70 -
21.01.2019 23:00:00 -9,6 -15,1 21 11 N 70 -
21.01.2019 22:00:00 -9,4 -15,0 22 12 N 70 -
21.01.2019 21:00:00 -9,0 -14,8 16 9 N 70 -
21.01.2019 20:00:00 -9,0 -15,3 15 8 NNW 70 -
21.01.2019 19:00:00 -8,8 -15,2 18 10 N 70 -
21.01.2019 18:00:00 -8,8 -15,4 16 9 N 70 0
21.01.2019 17:00:00 -8,6 -15,6 15 8 N 70 60
21.01.2019 16:00:00 -8,0 -15,5 11 6 N 70 60
21.01.2019 15:00:00 -7,8 -15,7 8 4 N 60 60
21.01.2019 14:00:00 -7,6 -15,1 0 0 N 60 60
21.01.2019 13:00:00 -7,6 -15,1 5 3 N 60 30
21.01.2019 12:00:00 -8,0 -15,0 5 3 N 70 60
21.01.2019 11:00:00 -8,4 -15,4 4 2 N 70 60
21.01.2019 10:00:00 -8,0 -15,0 4 2 N 70 60
21.01.2019 09:00:00 -9,2 -15,1 0 0 N 80 12
21.01.2019 08:00:00 -9,8 -16,3 0 0 N 70 0
21.01.2019 07:00:00 -10,0 -16,3 16 9 N 75 -
21.01.2019 06:00:00 -9,6 -16,1 18 10 N 70 -
21.01.2019 05:00:00 -9,4 -15,0 21 11 N 70 -
21.01.2019 04:00:00 -9,0 -15,5 18 10 N 70 -
21.01.2019 03:00:00 -9,2 -15,0 15 8 N 70 -
21.01.2019 02:00:00 -9,2 -15,1 18 10 N 70 -
21.01.2019 01:00:00 -9,0 -16,2 22 12 N 70 -
21.01.2019 00:00:00 -9,0 -16,4 18 10 N 70 -
20.01.2019 23:00:00 -9,0 -16,4 22 12 N 70 -
20.01.2019 22:00:00 -9,0 -16,4 16 9 N 70 -
20.01.2019 21:00:00 -8,8 -17,6 15 8 N 70 -
20.01.2019 20:00:00 -8,6 -18,1 15 8 N 70 -
20.01.2019 19:00:00 -8,6 -18,7 15 8 N 70 -
20.01.2019 18:00:00 -8,4 -18,2 8 4 N 70 0
20.01.2019 17:00:00 -8,2 -18,6 9 5 N 70 60
20.01.2019 16:00:00 -8,0 -19,5 11 6 N 70 60
20.01.2019 15:00:00 -8,0 -20,5 9 5 N 80 60
20.01.2019 14:00:00 -8,2 -20,3 11 6 N 70 60
20.01.2019 13:00:00 -8,4 -17,7 9 5 N 70 60
20.01.2019 12:00:00 -8,4 -17,0 5 3 NNW 70 60
20.01.2019 11:00:00 -8,6 -15,8 9 5 N 70 60
20.01.2019 10:00:00 -8,2 -13,1 4 2 N 70 60
20.01.2019 09:00:00 -10,0 -13,1 0 0 N 50 12
20.01.2019 08:00:00 -10,2 -13,0 0 0 N 50 0
20.01.2019 07:00:00 -10,2 -13,0 0 0 N 40 -
20.01.2019 06:00:00 -10,2 -12,7 5 3 N 40 -
20.01.2019 05:00:00 -10,0 -12,2 5 3 N 40 -
20.01.2019 04:00:00 -10,2 -12,2 0 0 N 40 -
20.01.2019 03:00:00 -10,4 -13,0 9 5 N 40 -
20.01.2019 02:00:00 -10,0 -13,6 0 0 N 40 -
20.01.2019 01:00:00 -10,0 -13,0 0 0 N 40 -
20.01.2019 00:00:00 -9,8 -12,9 0 0 N 40 -
19.01.2019 23:00:00 -9,7 -12,6 4 2 N 40 -
19.01.2019 22:00:00 -9,8 -12,7 4 2 N 40 -
19.01.2019 21:00:00 -10,0 -12,8 8 4 N 40 -
19.01.2019 20:00:00 -10,0 -12,3 5 3 N 40 -
19.01.2019 19:00:00 -10,0 -12,8 9 5 N 40 -
19.01.2019 18:00:00 -9,0 -12,3 0 0 N 30 0
19.01.2019 17:00:00 -8,6 -12,2 0 0 N 40 0
19.01.2019 16:00:00 -8,0 -11,3 0 0 N 30 0
19.01.2019 15:00:00 -7,4 -10,3 0 0 N 0,9 0
19.01.2019 14:00:00 -7,6 -10,3 0 0 N 0,9 0
19.01.2019 13:00:00 -7,4 -9,9 0 0 N 0,9 0
19.01.2019 12:00:00 -7,6 -9,7 8 4 SSW 0,6 0
19.01.2019 11:00:00 -8,2 -10,4 9 5 SSW 0,6 0
19.01.2019 10:00:00 -8,8 -11,0 9 5 SSW 0,6 0
19.01.2019 09:00:00 -9,2 -11,4 9 5 S 0,2 0
19.01.2019 08:00:00 -9,2 -11,4 13 7 SSW - 0
19.01.2019 07:00:00 -9,0 -11,7 15 8 S 0,9 -
19.01.2019 06:00:00 -9,0 -11,2 5 3 S 0,9 -
19.01.2019 05:00:00 -8,8 -11,3 5 3 S 0,1 -
19.01.2019 04:00:00 -9,0 -11,1 11 6 SSW - -
19.01.2019 03:00:00 -8,2 -8,8 9 5 SSW - -
19.01.2019 02:00:00 -8,2 -8,8 8 4 S - -
19.01.2019 01:00:00 -8,2 -8,9 8 4 S - -
19.01.2019 00:00:00 -8,2 -9,3 15 8 S - -
18.01.2019 23:00:00 -8,4 -9,7 15 8 S 0,1 -
18.01.2019 22:00:00 -8,4 -10,0 11 6 S 0,9 -
18.01.2019 21:00:00 -9,2 -11,3 8 4 S 30 -
18.01.2019 20:00:00 -9,8 -17,1 18 10 N 50 -
18.01.2019 19:00:00 -9,2 -20,0 18 10 N 70 -
18.01.2019 18:00:00 -9,2 -19,0 18 10 N 70 0
18.01.2019 17:00:00 -9,2 -16,8 18 10 N 70 6
18.01.2019 16:00:00 -9,2 -16,2 22 12 N 80 42
18.01.2019 15:00:00 -9,2 -15,0 26 14 N 80 60
18.01.2019 14:00:00 -9,2 -14,2 31 17 N 80 60
18.01.2019 13:00:00 -9,6 -14,2 31 17 N 75 60
18.01.2019 12:00:00 -9,8 -14,8 34 18 NNW 75 60
18.01.2019 11:00:00 -9,8 -15,9 35 19 NW 75 60
18.01.2019 10:00:00 -10,0 -15,1 26 14 N 60 60
18.01.2019 09:00:00 -10,0 -14,8 29 16 NNW 50 0
18.01.2019 08:00:00 -10,0 -14,4 34 18 N 40 0
18.01.2019 07:00:00 -9,4 -13,0 34 18 N 20 -
18.01.2019 06:00:00 -8,5 -10,6 11 6 N 0,9 -
18.01.2019 05:00:00 -6,7 -7,5 9 5 NNW 0,3 -
18.01.2019 04:00:00 -5,7 -6,5 8 4 NNW 0,3 -
18.01.2019 03:00:00 -4,8 -6,2 11 6 SSW 0,3 -
18.01.2019 02:00:00 -4,0 -5,8 15 8 SSW 0,3 -
18.01.2019 01:00:00 -3,4 -5,4 18 10 SSW 0,3 -
18.01.2019 00:00:00 -3,7 -5,7 26 14 SSW 0,3 -
17.01.2019 23:00:00 -3,7 -5,7 22 12 SSW 0,3 -
17.01.2019 22:00:00 -3,8 -5,8 22 12 SSW 0,3 -
17.01.2019 21:00:00 -3,8 -6,0 22 12 SW - -
17.01.2019 20:00:00 -3,6 -5,9 18 10 SSW - -
17.01.2019 19:00:00 -3,9 -5,6 29 16 SW - -
17.01.2019 18:00:00 - - - - - - -
17.01.2019 17:00:00 -3,6 -5,3 26 14 SW - 0
17.01.2019 16:00:00 -3,9 -5,6 28 15 SSW - 0
17.01.2019 15:00:00 -3,6 -5,1 34 18 SSW - 0
17.01.2019 14:00:00 -3,4 -4,8 22 12 SW - 0
17.01.2019 13:00:00 -3,9 -5,3 15 8 SSW - 0
17.01.2019 12:00:00 -3,8 -5,0 18 10 SW - 0
17.01.2019 11:00:00 -3,8 -5,0 18 10 SW - 0
17.01.2019 10:00:00 -4,0 -5,4 18 10 SW - 0
17.01.2019 09:00:00 -4,0 -5,3 26 14 SW - 0
17.01.2019 08:00:00 -4,0 -5,0 29 16 WSW - 0

tt = Température de l'air
td = dewpoint
ff = Vitesse du vent
dd = Direction du vent
vv = visibility
sd = Ensoleillement

stations d'obs. à proximité